sensor_id;sensor_type;location;lat;lon;timestamp;P1;durP1;ratioP1;P2;durP2;ratioP2
57858;SDS011;49153;45.568;11.894;2023-01-15T00:01:28;67.13;;;37.40;;
57858;SDS011;49153;45.568;11.894;2023-01-15T00:03:56;65.43;;;36.25;;
57858;SDS011;49153;45.568;11.894;2023-01-15T00:06:23;70.63;;;37.00;;
57858;SDS011;49153;45.568;11.894;2023-01-15T00:08:50;69.00;;;35.75;;
57858;SDS011;49153;45.568;11.894;2023-01-15T00:11:15;68.55;;;37.45;;
57858;SDS011;49153;45.568;11.894;2023-01-15T00:13:41;70.15;;;37.30;;
57858;SDS011;49153;45.568;11.894;2023-01-15T00:16:08;68.20;;;35.72;;
57858;SDS011;49153;45.568;11.894;2023-01-15T00:18:36;68.28;;;35.65;;
57858;SDS011;49153;45.568;11.894;2023-01-15T00:21:02;66.80;;;34.10;;
57858;SDS011;49153;45.568;11.894;2023-01-15T00:23:30;64.57;;;33.53;;
57858;SDS011;49153;45.568;11.894;2023-01-15T00:26:14;63.13;;;32.92;;
57858;SDS011;49153;45.568;11.894;2023-01-15T00:28:59;62.88;;;33.97;;
57858;SDS011;49153;45.568;11.894;2023-01-15T00:31:25;67.22;;;36.63;;
57858;SDS011;49153;45.568;11.894;2023-01-15T00:33:51;69.75;;;34.85;;
57858;SDS011;49153;45.568;11.894;2023-01-15T00:36:17;68.40;;;36.08;;
57858;SDS011;49153;45.568;11.894;2023-01-15T00:38:42;68.70;;;36.80;;
57858;SDS011;49153;45.568;11.894;2023-01-15T00:41:08;65.18;;;35.70;;
57858;SDS011;49153;45.568;11.894;2023-01-15T00:43:34;66.18;;;36.28;;
57858;SDS011;49153;45.568;11.894;2023-01-15T00:46:00;73.25;;;36.90;;
57858;SDS011;49153;45.568;11.894;2023-01-15T00:48:26;70.88;;;37.60;;
57858;SDS011;49153;45.568;11.894;2023-01-15T00:50:52;66.05;;;36.13;;
57858;SDS011;49153;45.568;11.894;2023-01-15T00:53:18;66.78;;;35.85;;
57858;SDS011;49153;45.568;11.894;2023-01-15T00:55:44;65.85;;;35.85;;
57858;SDS011;49153;45.568;11.894;2023-01-15T00:58:09;67.03;;;34.05;;
57858;SDS011;49153;45.568;11.894;2023-01-15T01:00:34;64.63;;;33.08;;
57858;SDS011;49153;45.568;11.894;2023-01-15T01:03:00;62.50;;;32.53;;
57858;SDS011;49153;45.568;11.894;2023-01-15T01:05:25;60.40;;;31.95;;
57858;SDS011;49153;45.568;11.894;2023-01-15T01:07:51;60.88;;;33.70;;
57858;SDS011;49153;45.568;11.894;2023-01-15T01:10:16;57.42;;;31.15;;
57858;SDS011;49153;45.568;11.894;2023-01-15T01:12:42;59.88;;;31.58;;
57858;SDS011;49153;45.568;11.894;2023-01-15T01:15:08;59.10;;;31.60;;
57858;SDS011;49153;45.568;11.894;2023-01-15T01:17:35;57.88;;;31.52;;
57858;SDS011;49153;45.568;11.894;2023-01-15T01:20:02;60.83;;;32.90;;
57858;SDS011;49153;45.568;11.894;2023-01-15T01:22:28;66.55;;;34.30;;
57858;SDS011;49153;45.568;11.894;2023-01-15T01:24:54;68.45;;;35.25;;
57858;SDS011;49153;45.568;11.894;2023-01-15T01:27:19;63.40;;;34.13;;
57858;SDS011;49153;45.568;11.894;2023-01-15T01:29:45;63.05;;;34.05;;
57858;SDS011;49153;45.568;11.894;2023-01-15T01:32:10;60.33;;;32.28;;
57858;SDS011;49153;45.568;11.894;2023-01-15T01:34:35;60.55;;;32.08;;
57858;SDS011;49153;45.568;11.894;2023-01-15T01:37:01;61.03;;;33.67;;
57858;SDS011;49153;45.568;11.894;2023-01-15T01:39:26;56.08;;;31.25;;
57858;SDS011;49153;45.568;11.894;2023-01-15T01:41:52;58.05;;;31.88;;
57858;SDS011;49153;45.568;11.894;2023-01-15T01:47:03;60.83;;;31.20;;
57858;SDS011;49153;45.568;11.894;2023-01-15T01:52:20;51.80;;;28.08;;
57858;SDS011;49153;45.568;11.894;2023-01-15T01:54:52;53.95;;;28.48;;
57858;SDS011;49153;45.568;11.894;2023-01-15T01:57:18;48.20;;;27.55;;
57858;SDS011;49153;45.568;11.894;2023-01-15T01:59:45;51.03;;;27.88;;
57858;SDS011;49153;45.568;11.894;2023-01-15T02:02:11;55.88;;;28.10;;
57858;SDS011;49153;45.568;11.894;2023-01-15T02:04:37;61.25;;;30.10;;
57858;SDS011;49153;45.568;11.894;2023-01-15T02:07:04;60.08;;;30.88;;
57858;SDS011;49153;45.568;11.894;2023-01-15T02:09:31;67.25;;;31.23;;
57858;SDS011;49153;45.568;11.894;2023-01-15T02:11:57;60.42;;;31.55;;
57858;SDS011;49153;45.568;11.894;2023-01-15T02:14:38;63.95;;;31.13;;
57858;SDS011;49153;45.568;11.894;2023-01-15T02:17:13;66.57;;;30.05;;
57858;SDS011;49153;45.568;11.894;2023-01-15T02:27:58;54.78;;;24.27;;
57858;SDS011;49153;45.568;11.894;2023-01-15T02:30:32;47.55;;;23.33;;
57858;SDS011;49153;45.568;11.894;2023-01-15T02:33:17;46.33;;;22.70;;
57858;SDS011;49153;45.568;11.894;2023-01-15T02:35:53;45.20;;;22.40;;
57858;SDS011;49153;45.568;11.894;2023-01-15T02:38:26;53.40;;;23.25;;
57858;SDS011;49153;45.568;11.894;2023-01-15T02:40:55;47.85;;;23.30;;
57858;SDS011;49153;45.568;11.894;2023-01-15T02:43:25;53.73;;;23.70;;
57858;SDS011;49153;45.568;11.894;2023-01-15T02:45:54;53.42;;;23.70;;
57858;SDS011;49153;45.568;11.894;2023-01-15T02:48:23;52.80;;;22.67;;
57858;SDS011;49153;45.568;11.894;2023-01-15T02:51:02;53.90;;;22.58;;
57858;SDS011;49153;45.568;11.894;2023-01-15T02:53:34;50.20;;;21.55;;
57858;SDS011;49153;45.568;11.894;2023-01-15T02:56:06;42.40;;;20.92;;
57858;SDS011;49153;45.568;11.894;2023-01-15T02:58:36;45.05;;;21.17;;
57858;SDS011;49153;45.568;11.894;2023-01-15T03:01:06;44.75;;;21.35;;
57858;SDS011;49153;45.568;11.894;2023-01-15T03:06:40;44.45;;;21.35;;
57858;SDS011;49153;45.568;11.894;2023-01-15T03:09:12;43.75;;;21.75;;
57858;SDS011;49153;45.568;11.894;2023-01-15T03:11:43;42.63;;;21.33;;
57858;SDS011;49153;45.568;11.894;2023-01-15T03:14:28;42.38;;;21.30;;
57858;SDS011;49153;45.568;11.894;2023-01-15T03:17:09;43.72;;;21.40;;
57858;SDS011;49153;45.568;11.894;2023-01-15T03:22:31;41.00;;;19.83;;
57858;SDS011;49153;45.568;11.894;2023-01-15T03:25:02;43.53;;;21.42;;
57858;SDS011;49153;45.568;11.894;2023-01-15T03:29:58;39.10;;;19.88;;
57858;SDS011;49153;45.568;11.894;2023-01-15T03:32:29;42.47;;;20.35;;
57858;SDS011;49153;45.568;11.894;2023-01-15T03:34:55;39.60;;;19.08;;
57858;SDS011;49153;45.568;11.894;2023-01-15T03:37:21;38.90;;;19.45;;
57858;SDS011;49153;45.568;11.894;2023-01-15T03:39:50;32.55;;;17.30;;
57858;SDS011;49153;45.568;11.894;2023-01-15T03:43:03;43.15;;;21.02;;
57858;SDS011;49153;45.568;11.894;2023-01-15T03:50:10;38.37;;;20.13;;
57858;SDS011;49153;45.568;11.894;2023-01-15T03:58:44;38.58;;;19.38;;
57858;SDS011;49153;45.568;11.894;2023-01-15T04:01:34;34.47;;;18.67;;
57858;SDS011;49153;45.568;11.894;2023-01-15T04:04:03;38.10;;;19.27;;
57858;SDS011;49153;45.568;11.894;2023-01-15T04:06:31;34.22;;;18.58;;
57858;SDS011;49153;45.568;11.894;2023-01-15T04:08:59;37.25;;;18.70;;
57858;SDS011;49153;45.568;11.894;2023-01-15T04:11:27;34.55;;;19.00;;
57858;SDS011;49153;45.568;11.894;2023-01-15T04:13:52;33.80;;;18.60;;
57858;SDS011;49153;45.568;11.894;2023-01-15T04:16:22;32.70;;;19.15;;
57858;SDS011;49153;45.568;11.894;2023-01-15T04:18:50;32.65;;;18.23;;
57858;SDS011;49153;45.568;11.894;2023-01-15T04:21:15;32.50;;;18.17;;
57858;SDS011;49153;45.568;11.894;2023-01-15T04:23:41;34.58;;;18.90;;
57858;SDS011;49153;45.568;11.894;2023-01-15T04:26:06;36.50;;;20.40;;
57858;SDS011;49153;45.568;11.894;2023-01-15T04:28:32;33.47;;;18.67;;
57858;SDS011;49153;45.568;11.894;2023-01-15T04:30:58;33.67;;;18.38;;
57858;SDS011;49153;45.568;11.894;2023-01-15T04:33:24;31.42;;;17.20;;
57858;SDS011;49153;45.568;11.894;2023-01-15T04:35:50;30.20;;;17.67;;
57858;SDS011;49153;45.568;11.894;2023-01-15T04:38:15;33.25;;;18.73;;
57858;SDS011;49153;45.568;11.894;2023-01-15T04:40:42;31.65;;;17.75;;
57858;SDS011;49153;45.568;11.894;2023-01-15T04:43:26;30.58;;;17.83;;
57858;SDS011;49153;45.568;11.894;2023-01-15T04:46:10;32.88;;;17.73;;
57858;SDS011;49153;45.568;11.894;2023-01-15T04:48:37;30.20;;;17.77;;
57858;SDS011;49153;45.568;11.894;2023-01-15T04:51:03;32.72;;;18.85;;
57858;SDS011;49153;45.568;11.894;2023-01-15T04:53:30;32.88;;;18.65;;
57858;SDS011;49153;45.568;11.894;2023-01-15T04:55:59;33.35;;;19.08;;
57858;SDS011;49153;45.568;11.894;2023-01-15T04:58:26;32.15;;;18.23;;
57858;SDS011;49153;45.568;11.894;2023-01-15T05:00:51;29.42;;;17.73;;
57858;SDS011;49153;45.568;11.894;2023-01-15T05:03:17;31.42;;;18.30;;
57858;SDS011;49153;45.568;11.894;2023-01-15T05:05:42;33.45;;;19.35;;
57858;SDS011;49153;45.568;11.894;2023-01-15T05:08:07;33.42;;;19.02;;
57858;SDS011;49153;45.568;11.894;2023-01-15T05:10:33;28.08;;;17.15;;
57858;SDS011;49153;45.568;11.894;2023-01-15T05:12:58;37.30;;;19.60;;
57858;SDS011;49153;45.568;11.894;2023-01-15T05:15:24;33.05;;;19.30;;
57858;SDS011;49153;45.568;11.894;2023-01-15T05:17:49;34.15;;;19.25;;
57858;SDS011;49153;45.568;11.894;2023-01-15T05:20:14;33.70;;;18.73;;
57858;SDS011;49153;45.568;11.894;2023-01-15T05:22:40;33.10;;;19.30;;
57858;SDS011;49153;45.568;11.894;2023-01-15T05:25:05;32.50;;;19.33;;
57858;SDS011;49153;45.568;11.894;2023-01-15T05:27:31;30.58;;;18.35;;
57858;SDS011;49153;45.568;11.894;2023-01-15T05:29:56;29.40;;;17.50;;
57858;SDS011;49153;45.568;11.894;2023-01-15T05:32:22;34.40;;;19.00;;
57858;SDS011;49153;45.568;11.894;2023-01-15T05:34:47;31.02;;;18.48;;
57858;SDS011;49153;45.568;11.894;2023-01-15T05:37:13;33.17;;;18.83;;
57858;SDS011;49153;45.568;11.894;2023-01-15T05:39:38;29.10;;;18.50;;
57858;SDS011;49153;45.568;11.894;2023-01-15T05:42:04;31.48;;;19.08;;
57858;SDS011;49153;45.568;11.894;2023-01-15T05:44:29;33.10;;;19.35;;
57858;SDS011;49153;45.568;11.894;2023-01-15T05:46:59;38.17;;;20.75;;
57858;SDS011;49153;45.568;11.894;2023-01-15T05:49:31;36.03;;;21.13;;
57858;SDS011;49153;45.568;11.894;2023-01-15T05:51:58;35.65;;;19.98;;
57858;SDS011;49153;45.568;11.894;2023-01-15T05:54:26;33.28;;;19.58;;
57858;SDS011;49153;45.568;11.894;2023-01-15T05:56:53;40.17;;;20.98;;
57858;SDS011;49153;45.568;11.894;2023-01-15T05:59:20;38.40;;;22.52;;
57858;SDS011;49153;45.568;11.894;2023-01-15T06:01:48;33.17;;;19.60;;
57858;SDS011;49153;45.568;11.894;2023-01-15T06:04:13;33.65;;;19.75;;
57858;SDS011;49153;45.568;11.894;2023-01-15T06:06:40;31.10;;;18.17;;
57858;SDS011;49153;45.568;11.894;2023-01-15T06:09:06;32.40;;;19.38;;
57858;SDS011;49153;45.568;11.894;2023-01-15T06:11:32;35.05;;;19.92;;
57858;SDS011;49153;45.568;11.894;2023-01-15T06:13:58;31.27;;;18.42;;
57858;SDS011;49153;45.568;11.894;2023-01-15T06:16:23;32.85;;;18.52;;
57858;SDS011;49153;45.568;11.894;2023-01-15T06:18:49;32.90;;;19.25;;
57858;SDS011;49153;45.568;11.894;2023-01-15T06:21:14;30.95;;;18.15;;
57858;SDS011;49153;45.568;11.894;2023-01-15T06:23:40;31.08;;;18.27;;
57858;SDS011;49153;45.568;11.894;2023-01-15T06:26:07;33.90;;;19.92;;
57858;SDS011;49153;45.568;11.894;2023-01-15T06:28:37;32.65;;;20.05;;
57858;SDS011;49153;45.568;11.894;2023-01-15T06:31:07;34.17;;;20.35;;
57858;SDS011;49153;45.568;11.894;2023-01-15T06:33:34;34.23;;;20.60;;
57858;SDS011;49153;45.568;11.894;2023-01-15T06:36:03;33.75;;;19.98;;
57858;SDS011;49153;45.568;11.894;2023-01-15T06:38:30;36.05;;;19.75;;
57858;SDS011;49153;45.568;11.894;2023-01-15T06:40:57;34.45;;;18.63;;
57858;SDS011;49153;45.568;11.894;2023-01-15T06:43:23;34.45;;;20.23;;
57858;SDS011;49153;45.568;11.894;2023-01-15T06:46:08;35.03;;;19.85;;
57858;SDS011;49153;45.568;11.894;2023-01-15T06:48:52;33.53;;;19.67;;
57858;SDS011;49153;45.568;11.894;2023-01-15T06:51:18;35.65;;;20.50;;
57858;SDS011;49153;45.568;11.894;2023-01-15T06:53:45;35.33;;;20.15;;
57858;SDS011;49153;45.568;11.894;2023-01-15T06:56:12;35.70;;;20.35;;
57858;SDS011;49153;45.568;11.894;2023-01-15T06:58:39;29.67;;;18.75;;
57858;SDS011;49153;45.568;11.894;2023-01-15T07:01:09;37.15;;;21.95;;
57858;SDS011;49153;45.568;11.894;2023-01-15T07:03:35;40.10;;;22.93;;
57858;SDS011;49153;45.568;11.894;2023-01-15T07:06:05;36.60;;;21.55;;
57858;SDS011;49153;45.568;11.894;2023-01-15T07:08:35;45.58;;;25.25;;
57858;SDS011;49153;45.568;11.894;2023-01-15T07:11:04;43.88;;;24.40;;
57858;SDS011;49153;45.568;11.894;2023-01-15T07:13:31;41.85;;;23.50;;
57858;SDS011;49153;45.568;11.894;2023-01-15T07:16:00;42.75;;;23.42;;
57858;SDS011;49153;45.568;11.894;2023-01-15T07:18:27;44.40;;;23.00;;
57858;SDS011;49153;45.568;11.894;2023-01-15T07:20:57;37.40;;;22.15;;
57858;SDS011;49153;45.568;11.894;2023-01-15T07:23:24;37.30;;;22.20;;
57858;SDS011;49153;45.568;11.894;2023-01-15T07:25:51;40.22;;;22.30;;
57858;SDS011;49153;45.568;11.894;2023-01-15T07:28:17;40.83;;;22.17;;
57858;SDS011;49153;45.568;11.894;2023-01-15T07:30:43;38.03;;;22.88;;
57858;SDS011;49153;45.568;11.894;2023-01-15T07:33:09;41.47;;;24.38;;
57858;SDS011;49153;45.568;11.894;2023-01-15T07:35:34;34.70;;;21.77;;
57858;SDS011;49153;45.568;11.894;2023-01-15T07:38:01;36.33;;;21.88;;
57858;SDS011;49153;45.568;11.894;2023-01-15T07:40:26;40.28;;;23.23;;
57858;SDS011;49153;45.568;11.894;2023-01-15T07:42:52;41.30;;;23.58;;
57858;SDS011;49153;45.568;11.894;2023-01-15T07:45:37;43.28;;;23.25;;
57858;SDS011;49153;45.568;11.894;2023-01-15T07:48:22;39.42;;;22.67;;
57858;SDS011;49153;45.568;11.894;2023-01-15T07:51:08;40.78;;;23.30;;
57858;SDS011;49153;45.568;11.894;2023-01-15T07:53:34;40.42;;;23.27;;
57858;SDS011;49153;45.568;11.894;2023-01-15T07:55:59;42.35;;;23.15;;
57858;SDS011;49153;45.568;11.894;2023-01-15T07:58:25;43.05;;;23.80;;
57858;SDS011;49153;45.568;11.894;2023-01-15T08:00:50;34.05;;;19.13;;
57858;SDS011;49153;45.568;11.894;2023-01-15T08:03:16;35.70;;;20.95;;
57858;SDS011;49153;45.568;11.894;2023-01-15T08:05:42;39.22;;;21.80;;
57858;SDS011;49153;45.568;11.894;2023-01-15T08:08:12;37.03;;;20.20;;
57858;SDS011;49153;45.568;11.894;2023-01-15T08:10:41;36.65;;;20.77;;
57858;SDS011;49153;45.568;11.894;2023-01-15T08:13:25;36.45;;;20.20;;
57858;SDS011;49153;45.568;11.894;2023-01-15T08:16:09;33.58;;;19.55;;
57858;SDS011;49153;45.568;11.894;2023-01-15T08:18:35;33.80;;;20.33;;
57858;SDS011;49153;45.568;11.894;2023-01-15T08:21:01;35.15;;;20.42;;
57858;SDS011;49153;45.568;11.894;2023-01-15T08:23:27;34.40;;;21.80;;
57858;SDS011;49153;45.568;11.894;2023-01-15T08:25:52;34.47;;;21.50;;
57858;SDS011;49153;45.568;11.894;2023-01-15T08:28:17;41.72;;;24.20;;
57858;SDS011;49153;45.568;11.894;2023-01-15T08:30:43;37.42;;;22.27;;
57858;SDS011;49153;45.568;11.894;2023-01-15T08:33:08;34.95;;;22.17;;
57858;SDS011;49153;45.568;11.894;2023-01-15T08:35:34;37.78;;;23.67;;
57858;SDS011;49153;45.568;11.894;2023-01-15T08:38:05;34.47;;;21.75;;
57858;SDS011;49153;45.568;11.894;2023-01-15T08:40:31;34.75;;;20.25;;
57858;SDS011;49153;45.568;11.894;2023-01-15T08:42:57;33.60;;;21.33;;
57858;SDS011;49153;45.568;11.894;2023-01-15T08:45:23;35.50;;;21.77;;
57858;SDS011;49153;45.568;11.894;2023-01-15T08:47:48;35.63;;;20.10;;
57858;SDS011;49153;45.568;11.894;2023-01-15T08:50:14;35.90;;;21.50;;
57858;SDS011;49153;45.568;11.894;2023-01-15T08:52:39;37.03;;;21.25;;
57858;SDS011;49153;45.568;11.894;2023-01-15T08:55:06;36.92;;;21.25;;
57858;SDS011;49153;45.568;11.894;2023-01-15T08:57:31;31.40;;;19.70;;
57858;SDS011;49153;45.568;11.894;2023-01-15T08:59:57;43.13;;;26.65;;
57858;SDS011;49153;45.568;11.894;2023-01-15T09:02:22;40.22;;;22.58;;
57858;SDS011;49153;45.568;11.894;2023-01-15T09:04:48;38.67;;;24.67;;
57858;SDS011;49153;45.568;11.894;2023-01-15T09:07:13;39.72;;;24.35;;
57858;SDS011;49153;45.568;11.894;2023-01-15T09:09:38;52.10;;;30.45;;
57858;SDS011;49153;45.568;11.894;2023-01-15T09:12:04;49.30;;;31.40;;
57858;SDS011;49153;45.568;11.894;2023-01-15T09:14:29;42.50;;;27.60;;
57858;SDS011;49153;45.568;11.894;2023-01-15T09:16:55;40.40;;;25.88;;
57858;SDS011;49153;45.568;11.894;2023-01-15T09:19:21;38.72;;;25.95;;
57858;SDS011;49153;45.568;11.894;2023-01-15T09:21:47;40.03;;;24.75;;
57858;SDS011;49153;45.568;11.894;2023-01-15T09:24:12;42.30;;;24.63;;
57858;SDS011;49153;45.568;11.894;2023-01-15T09:26:38;42.75;;;25.25;;
57858;SDS011;49153;45.568;11.894;2023-01-15T09:29:05;46.38;;;26.17;;
57858;SDS011;49153;45.568;11.894;2023-01-15T09:31:31;42.47;;;25.67;;
57858;SDS011;49153;45.568;11.894;2023-01-15T09:33:57;49.17;;;27.90;;
57858;SDS011;49153;45.568;11.894;2023-01-15T09:36:32;53.75;;;28.08;;
57858;SDS011;49153;45.568;11.894;2023-01-15T09:38:59;50.70;;;30.15;;
57858;SDS011;49153;45.568;11.894;2023-01-15T09:41:28;46.90;;;27.92;;
57858;SDS011;49153;45.568;11.894;2023-01-15T09:46:59;44.92;;;27.55;;
57858;SDS011;49153;45.568;11.894;2023-01-15T09:52:24;47.22;;;25.90;;
57858;SDS011;49153;45.568;11.894;2023-01-15T09:55:09;50.75;;;27.08;;
57858;SDS011;49153;45.568;11.894;2023-01-15T09:57:54;49.08;;;26.98;;
57858;SDS011;49153;45.568;11.894;2023-01-15T10:00:24;46.67;;;25.50;;
57858;SDS011;49153;45.568;11.894;2023-01-15T10:03:00;39.33;;;22.30;;
57858;SDS011;49153;45.568;11.894;2023-01-15T10:05:30;41.58;;;22.10;;
57858;SDS011;49153;45.568;11.894;2023-01-15T10:08:11;35.28;;;22.52;;
57858;SDS011;49153;45.568;11.894;2023-01-15T10:10:46;39.95;;;24.95;;
57858;SDS011;49153;45.568;11.894;2023-01-15T10:16:08;31.67;;;19.45;;
57858;SDS011;49153;45.568;11.894;2023-01-15T10:18:37;32.10;;;21.10;;
57858;SDS011;49153;45.568;11.894;2023-01-15T10:21:15;30.98;;;20.17;;
57858;SDS011;49153;45.568;11.894;2023-01-15T10:28:53;28.33;;;18.40;;
57858;SDS011;49153;45.568;11.894;2023-01-15T10:31:25;32.00;;;19.13;;
57858;SDS011;49153;45.568;11.894;2023-01-15T10:34:18;29.95;;;18.63;;
57858;SDS011;49153;45.568;11.894;2023-01-15T10:37:08;28.83;;;17.60;;
57858;SDS011;49153;45.568;11.894;2023-01-15T10:44:52;27.65;;;17.25;;
57858;SDS011;49153;45.568;11.894;2023-01-15T10:47:25;29.35;;;17.88;;
57858;SDS011;49153;45.568;11.894;2023-01-15T10:49:57;32.80;;;18.80;;
57858;SDS011;49153;45.568;11.894;2023-01-15T10:52:30;30.80;;;18.85;;
57858;SDS011;49153;45.568;11.894;2023-01-15T10:55:06;31.35;;;18.60;;
57858;SDS011;49153;45.568;11.894;2023-01-15T11:00:35;27.92;;;17.75;;
57858;SDS011;49153;45.568;11.894;2023-01-15T11:03:03;30.45;;;18.08;;
57858;SDS011;49153;45.568;11.894;2023-01-15T11:05:33;29.70;;;18.67;;
57858;SDS011;49153;45.568;11.894;2023-01-15T11:08:00;31.60;;;18.08;;
57858;SDS011;49153;45.568;11.894;2023-01-15T11:10:30;28.92;;;18.67;;
57858;SDS011;49153;45.568;11.894;2023-01-15T11:12:57;32.30;;;19.10;;
57858;SDS011;49153;45.568;11.894;2023-01-15T11:15:45;34.17;;;21.88;;
57858;SDS011;49153;45.568;11.894;2023-01-15T11:21:39;36.70;;;21.15;;
57858;SDS011;49153;45.568;11.894;2023-01-15T11:24:11;32.65;;;21.27;;
57858;SDS011;49153;45.568;11.894;2023-01-15T11:26:39;33.05;;;21.17;;
57858;SDS011;49153;45.568;11.894;2023-01-15T11:29:11;34.53;;;20.95;;
57858;SDS011;49153;45.568;11.894;2023-01-15T11:31:40;34.40;;;21.60;;
57858;SDS011;49153;45.568;11.894;2023-01-15T11:34:14;35.13;;;22.42;;
57858;SDS011;49153;45.568;11.894;2023-01-15T11:36:43;36.08;;;22.42;;
57858;SDS011;49153;45.568;11.894;2023-01-15T11:39:24;36.33;;;23.38;;
57858;SDS011;49153;45.568;11.894;2023-01-15T11:42:04;31.55;;;20.88;;
57858;SDS011;49153;45.568;11.894;2023-01-15T11:44:57;35.60;;;20.98;;
57858;SDS011;49153;45.568;11.894;2023-01-15T11:47:51;35.25;;;21.48;;
57858;SDS011;49153;45.568;11.894;2023-01-15T11:50:38;36.08;;;21.50;;
57858;SDS011;49153;45.568;11.894;2023-01-15T11:53:17;33.92;;;21.27;;
57858;SDS011;49153;45.568;11.894;2023-01-15T11:55:56;38.55;;;21.98;;
57858;SDS011;49153;45.568;11.894;2023-01-15T12:00:53;35.53;;;22.52;;
57858;SDS011;49153;45.568;11.894;2023-01-15T12:03:21;38.78;;;24.85;;
57858;SDS011;49153;45.568;11.894;2023-01-15T12:05:55;40.28;;;24.02;;
57858;SDS011;49153;45.568;11.894;2023-01-15T12:11:07;36.05;;;23.38;;
57858;SDS011;49153;45.568;11.894;2023-01-15T12:13:47;36.45;;;23.27;;
57858;SDS011;49153;45.568;11.894;2023-01-15T12:17:01;40.58;;;25.63;;
57858;SDS011;49153;45.568;11.894;2023-01-15T12:22:11;36.30;;;22.73;;
57858;SDS011;49153;45.568;11.894;2023-01-15T12:25:19;39.25;;;24.33;;
57858;SDS011;49153;45.568;11.894;2023-01-15T12:35:59;39.38;;;24.40;;
57858;SDS011;49153;45.568;11.894;2023-01-15T12:38:43;39.83;;;24.48;;
57858;SDS011;49153;45.568;11.894;2023-01-15T12:41:13;42.58;;;24.23;;
57858;SDS011;49153;45.568;11.894;2023-01-15T12:43:45;37.00;;;21.77;;
57858;SDS011;49153;45.568;11.894;2023-01-15T12:46:32;37.92;;;23.25;;
57858;SDS011;49153;45.568;11.894;2023-01-15T12:49:03;39.35;;;23.52;;
57858;SDS011;49153;45.568;11.894;2023-01-15T12:52:06;36.70;;;23.20;;
57858;SDS011;49153;45.568;11.894;2023-01-15T12:54:54;34.40;;;22.48;;
57858;SDS011;49153;45.568;11.894;2023-01-15T12:57:52;38.65;;;22.92;;
57858;SDS011;49153;45.568;11.894;2023-01-15T13:00:24;36.85;;;23.60;;
57858;SDS011;49153;45.568;11.894;2023-01-15T13:05:37;38.47;;;21.50;;
57858;SDS011;49153;45.568;11.894;2023-01-15T13:08:12;35.70;;;21.77;;
57858;SDS011;49153;45.568;11.894;2023-01-15T13:10:44;38.45;;;22.17;;
57858;SDS011;49153;45.568;11.894;2023-01-15T13:16:03;38.70;;;24.15;;
57858;SDS011;49153;45.568;11.894;2023-01-15T13:21:36;35.85;;;21.35;;
57858;SDS011;49153;45.568;11.894;2023-01-15T13:24:14;35.97;;;20.98;;
57858;SDS011;49153;45.568;11.894;2023-01-15T13:27:09;34.83;;;20.33;;
57858;SDS011;49153;45.568;11.894;2023-01-15T13:29:45;32.15;;;20.90;;
57858;SDS011;49153;45.568;11.894;2023-01-15T13:32:21;34.90;;;20.67;;
57858;SDS011;49153;45.568;11.894;2023-01-15T13:37:26;31.92;;;19.95;;
57858;SDS011;49153;45.568;11.894;2023-01-15T13:40:03;31.60;;;20.45;;
57858;SDS011;49153;45.568;11.894;2023-01-15T13:42:31;34.60;;;21.35;;
57858;SDS011;49153;45.568;11.894;2023-01-15T13:44:57;34.03;;;21.42;;
57858;SDS011;49153;45.568;11.894;2023-01-15T13:47:28;36.42;;;23.30;;
57858;SDS011;49153;45.568;11.894;2023-01-15T13:50:10;39.30;;;22.70;;
57858;SDS011;49153;45.568;11.894;2023-01-15T13:52:42;37.33;;;22.42;;
57858;SDS011;49153;45.568;11.894;2023-01-15T13:57:40;32.85;;;21.15;;
57858;SDS011;49153;45.568;11.894;2023-01-15T14:00:24;37.13;;;22.55;;
57858;SDS011;49153;45.568;11.894;2023-01-15T14:02:54;38.95;;;23.23;;
57858;SDS011;49153;45.568;11.894;2023-01-15T14:07:50;39.17;;;24.10;;
57858;SDS011;49153;45.568;11.894;2023-01-15T14:15:22;36.22;;;22.60;;
57858;SDS011;49153;45.568;11.894;2023-01-15T14:21:09;35.97;;;22.58;;
57858;SDS011;49153;45.568;11.894;2023-01-15T14:23:52;34.45;;;21.75;;
57858;SDS011;49153;45.568;11.894;2023-01-15T14:29:24;37.08;;;22.85;;
57858;SDS011;49153;45.568;11.894;2023-01-15T14:32:14;35.10;;;21.97;;
57858;SDS011;49153;45.568;11.894;2023-01-15T14:34:56;39.75;;;24.75;;
57858;SDS011;49153;45.568;11.894;2023-01-15T14:37:30;36.63;;;22.88;;
57858;SDS011;49153;45.568;11.894;2023-01-15T14:40:02;37.05;;;23.67;;
57858;SDS011;49153;45.568;11.894;2023-01-15T14:42:31;41.40;;;24.52;;
57858;SDS011;49153;45.568;11.894;2023-01-15T14:48:20;38.10;;;23.85;;
57858;SDS011;49153;45.568;11.894;2023-01-15T14:50:51;40.72;;;24.77;;
57858;SDS011;49153;45.568;11.894;2023-01-15T14:53:28;41.13;;;25.05;;
57858;SDS011;49153;45.568;11.894;2023-01-15T14:56:00;35.33;;;23.77;;
57858;SDS011;49153;45.568;11.894;2023-01-15T15:03:49;40.05;;;24.75;;
57858;SDS011;49153;45.568;11.894;2023-01-15T15:06:20;37.72;;;23.30;;
57858;SDS011;49153;45.568;11.894;2023-01-15T15:08:46;35.97;;;24.00;;
57858;SDS011;49153;45.568;11.894;2023-01-15T15:11:14;40.95;;;24.90;;
57858;SDS011;49153;45.568;11.894;2023-01-15T15:14:06;37.78;;;22.67;;
57858;SDS011;49153;45.568;11.894;2023-01-15T15:16:39;40.42;;;24.05;;
57858;SDS011;49153;45.568;11.894;2023-01-15T15:22:02;35.92;;;22.52;;
57858;SDS011;49153;45.568;11.894;2023-01-15T15:24:31;40.35;;;24.15;;
57858;SDS011;49153;45.568;11.894;2023-01-15T15:27:33;35.88;;;22.52;;
57858;SDS011;49153;45.568;11.894;2023-01-15T15:29:56;34.90;;;20.83;;
57858;SDS011;49153;45.568;11.894;2023-01-15T15:32:28;40.83;;;25.08;;
57858;SDS011;49153;45.568;11.894;2023-01-15T15:34:53;40.28;;;25.08;;
57858;SDS011;49153;45.568;11.894;2023-01-15T15:37:23;36.10;;;23.08;;
57858;SDS011;49153;45.568;11.894;2023-01-15T15:39:53;33.67;;;21.75;;
57858;SDS011;49153;45.568;11.894;2023-01-15T15:42:24;40.42;;;24.85;;
57858;SDS011;49153;45.568;11.894;2023-01-15T15:45:17;37.67;;;22.77;;
57858;SDS011;49153;45.568;11.894;2023-01-15T15:51:04;39.13;;;23.90;;
57858;SDS011;49153;45.568;11.894;2023-01-15T15:53:30;37.03;;;22.85;;
57858;SDS011;49153;45.568;11.894;2023-01-15T15:55:56;40.28;;;25.52;;
57858;SDS011;49153;45.568;11.894;2023-01-15T15:58:25;42.00;;;26.30;;
57858;SDS011;49153;45.568;11.894;2023-01-15T16:01:16;41.28;;;25.58;;
57858;SDS011;49153;45.568;11.894;2023-01-15T16:03:47;42.92;;;25.88;;
57858;SDS011;49153;45.568;11.894;2023-01-15T16:06:18;39.35;;;25.40;;
57858;SDS011;49153;45.568;11.894;2023-01-15T16:08:52;39.05;;;24.02;;
57858;SDS011;49153;45.568;11.894;2023-01-15T16:11:28;37.25;;;23.95;;
57858;SDS011;49153;45.568;11.894;2023-01-15T16:13:56;41.67;;;25.35;;
57858;SDS011;49153;45.568;11.894;2023-01-15T16:16:23;41.58;;;25.60;;
57858;SDS011;49153;45.568;11.894;2023-01-15T16:18:52;42.47;;;25.73;;
57858;SDS011;49153;45.568;11.894;2023-01-15T16:24:07;43.30;;;25.65;;
57858;SDS011;49153;45.568;11.894;2023-01-15T16:26:47;44.58;;;26.65;;
57858;SDS011;49153;45.568;11.894;2023-01-15T16:29:20;44.38;;;26.40;;